Time;durP1;ratioP1;P1;durP2;ratioP2;P2;SDS_P1;SDS_P2;PMS_P1;PMS_P2;Temp;Humidity;BMP_temperature;BMP_pressure;BME280_temperature;BME280_humidity;BME280_pressure;Samples;Min_cycle;Max_cycle;Signal;HPM_P1;HPM_P2
2021/03/21 00:02:01;;;;;;;9.00;5.40;;;;;;;;;;5155415;27;20316;-76
2021/03/21 00:04:27;;;;;;;11.98;5.15;;;;;;;;;;5155506;27;20233;-78
2021/03/21 00:06:53;;;;;;;6.25;4.72;;;;;;;;;;5155424;27;20653;-76
2021/03/21 00:09:19;;;;;;;5.25;4.18;;;;;;;;;;5154062;27;20233;-77
2021/03/21 00:11:46;;;;;;;9.02;6.20;;;;;;;;;;5155131;27;20208;-76
2021/03/21 00:14:12;;;;;;;7.63;4.78;;;;;;;;;;5153645;27;20194;-77
2021/03/21 00:16:38;;;;;;;8.80;5.32;;;;;;;;;;5155026;27;20201;-77
2021/03/21 00:19:05;;;;;;;10.82;5.53;;;;;;;;;;5155430;27;20228;-76
2021/03/21 00:21:31;;;;;;;12.27;5.65;;;;;;;;;;5155012;27;20205;-77
2021/03/21 00:23:57;;;;;;;5.70;4.33;;;;;;;;;;5155167;27;20218;-77
2021/03/21 00:26:23;;;;;;;8.27;4.57;;;;;;;;;;5154742;27;20442;-77
2021/03/21 00:28:50;;;;;;;6.07;4.97;;;;;;;;;;5149541;27;20572;-77
2021/03/21 00:31:16;;;;;;;8.75;5.65;;;;;;;;;;5134833;27;20479;-76
2021/03/21 00:33:43;;;;;;;6.47;5.43;;;;;;;;;;5134420;27;20222;-78
2021/03/21 00:36:10;;;;;;;8.27;4.35;;;;;;;;;;5133948;27;20336;-79
2021/03/21 00:38:37;;;;;;;10.38;6.10;;;;;;;;;;5134107;27;20611;-78
2021/03/21 00:41:04;;;;;;;7.95;4.05;;;;;;;;;;5144076;27;20193;-77
2021/03/21 00:43:30;;;;;;;7.25;5.72;;;;;;;;;;5155074;27;20197;-77
2021/03/21 00:45:57;;;;;;;7.57;4.75;;;;;;;;;;5153812;27;20273;-77
2021/03/21 00:48:24;;;;;;;7.72;4.00;;;;;;;;;;5154302;27;20230;-77
2021/03/21 00:50:50;;;;;;;4.68;3.80;;;;;;;;;;5154857;27;20643;-76
2021/03/21 00:53:16;;;;;;;7.75;4.43;;;;;;;;;;5153950;27;20355;-77
2021/03/21 00:55:43;;;;;;;9.63;4.05;;;;;;;;;;5154676;27;20288;-77
2021/03/21 00:58:09;;;;;;;7.60;4.20;;;;;;;;;;5154313;27;20197;-76
2021/03/21 01:00:36;;;;;;;7.50;4.63;;;;;;;;;;5154742;27;20248;-77
2021/03/21 01:03:03;;;;;;;7.30;4.43;;;;;;;;;;5154637;27;20571;-77
2021/03/21 01:05:32;;;;;;;7.65;4.60;;;;;;;;;;5154082;27;20255;-77
2021/03/21 01:07:58;;;;;;;5.65;3.95;;;;;;;;;;5153042;27;20627;-78
2021/03/21 01:10:25;;;;;;;6.43;5.15;;;;;;;;;;5154753;27;20650;-75
2021/03/21 01:12:52;;;;;;;8.43;4.65;;;;;;;;;;5154472;27;20584;-76
2021/03/21 01:15:18;;;;;;;8.35;5.15;;;;;;;;;;5154605;27;20193;-77
2021/03/21 01:17:44;;;;;;;10.55;5.05;;;;;;;;;;5154372;27;20269;-77
2021/03/21 01:20:12;;;;;;;7.35;5.70;;;;;;;;;;5154969;27;20580;-77
2021/03/21 01:22:38;;;;;;;7.20;5.00;;;;;;;;;;5158918;27;20571;-76
2021/03/21 01:25:04;;;;;;;10.60;4.75;;;;;;;;;;5157998;27;20205;-77
2021/03/21 01:27:31;;;;;;;9.07;5.43;;;;;;;;;;5158235;27;20246;-77
2021/03/21 01:29:57;;;;;;;9.98;5.53;;;;;;;;;;5158128;27;20196;-75
2021/03/21 01:32:23;;;;;;;6.43;5.15;;;;;;;;;;5158488;27;20281;-78
2021/03/21 01:34:49;;;;;;;9.43;5.70;;;;;;;;;;5158177;27;20202;-76
2021/03/21 01:37:16;;;;;;;8.18;6.35;;;;;;;;;;5158260;27;20446;-76
2021/03/21 01:39:42;;;;;;;7.25;4.75;;;;;;;;;;5158222;27;20698;-77
2021/03/21 01:42:09;;;;;;;10.68;5.88;;;;;;;;;;5157721;27;20233;-77
2021/03/21 01:44:35;;;;;;;6.93;4.97;;;;;;;;;;5157380;27;20193;-77
2021/03/21 01:47:06;;;;;;;12.05;6.03;;;;;;;;;;5157937;27;20308;-77
2021/03/21 01:49:33;;;;;;;8.25;5.18;;;;;;;;;;5157989;27;20366;-77
2021/03/21 01:52:00;;;;;;;7.88;5.63;;;;;;;;;;5158192;27;20198;-77
2021/03/21 01:54:28;;;;;;;7.60;5.05;;;;;;;;;;5157224;27;20605;-78
2021/03/21 01:56:55;;;;;;;10.52;5.20;;;;;;;;;;5157824;27;20205;-78
2021/03/21 01:59:22;;;;;;;9.48;5.20;;;;;;;;;;5157064;27;20209;-76
2021/03/21 02:01:49;;;;;;;7.85;4.78;;;;;;;;;;5157666;27;20198;-77
2021/03/21 02:04:16;;;;;;;7.97;5.50;;;;;;;;;;5157304;27;20193;-77
2021/03/21 02:06:49;;;;;;;8.02;5.25;;;;;;;;;;5157335;27;20708;-77
2021/03/21 02:09:21;;;;;;;7.30;4.78;;;;;;;;;;5157107;27;20178;-77
2021/03/21 02:11:58;;;;;;;8.63;5.63;;;;;;;;;;5157953;27;20679;-76
2021/03/21 02:14:29;;;;;;;5.25;4.75;;;;;;;;;;5157218;27;20193;-78
2021/03/21 02:16:59;;;;;;;10.05;5.22;;;;;;;;;;5157472;27;20198;-78
2021/03/21 02:19:49;;;;;;;6.22;3.90;;;;;;;;;;5157356;27;20208;-77
2021/03/21 02:22:19;;;;;;;9.77;4.82;;;;;;;;;;5131529;27;20631;-77
2021/03/21 02:25:02;;;;;;;9.48;5.57;;;;;;;;;;5155963;27;20213;-77
2021/03/21 02:27:47;;;;;;;8.93;4.63;;;;;;;;;;5156846;27;20209;-77
2021/03/21 02:30:17;;;;;;;10.20;5.82;;;;;;;;;;5156527;27;20559;-75
2021/03/21 02:32:48;;;;;;;7.72;4.55;;;;;;;;;;5155366;27;20198;-76
2021/03/21 02:35:19;;;;;;;9.10;4.15;;;;;;;;;;5153300;27;20226;-77
2021/03/21 02:37:47;;;;;;;5.90;4.70;;;;;;;;;;5136347;27;20330;-77
2021/03/21 02:40:18;;;;;;;9.40;5.45;;;;;;;;;;5136669;27;20278;-76
2021/03/21 02:42:47;;;;;;;7.85;4.28;;;;;;;;;;5136988;27;20230;-78
2021/03/21 02:45:16;;;;;;;11.73;6.10;;;;;;;;;;5135904;27;20182;-77
2021/03/21 02:47:42;;;;;;;6.55;3.92;;;;;;;;;;5135980;27;20688;-76
2021/03/21 02:50:14;;;;;;;5.25;4.20;;;;;;;;;;5135973;27;20207;-77
2021/03/21 02:52:43;;;;;;;6.10;4.65;;;;;;;;;;5135408;27;20293;-78
2021/03/21 02:55:15;;;;;;;5.30;4.80;;;;;;;;;;5135938;27;20316;-78
2021/03/21 02:57:44;;;;;;;8.68;5.88;;;;;;;;;;5135114;27;20189;-77
2021/03/21 03:00:11;;;;;;;5.25;4.13;;;;;;;;;;5135153;27;20198;-75
2021/03/21 03:02:39;;;;;;;7.85;5.18;;;;;;;;;;5135520;27;20190;-77
2021/03/21 03:05:10;;;;;;;11.05;5.20;;;;;;;;;;5135323;27;20322;-77
2021/03/21 03:07:37;;;;;;;9.07;5.18;;;;;;;;;;5134905;27;20568;-76
2021/03/21 03:10:07;;;;;;;5.38;4.10;;;;;;;;;;5135954;27;20203;-77
2021/03/21 03:12:34;;;;;;;8.20;3.90;;;;;;;;;;5134581;27;20197;-76
2021/03/21 03:15:01;;;;;;;7.20;4.90;;;;;;;;;;5135126;27;20726;-77
2021/03/21 03:17:31;;;;;;;9.40;5.13;;;;;;;;;;5135977;27;20607;-77
2021/03/21 03:20:04;;;;;;;7.63;4.72;;;;;;;;;;5135394;27;20719;-78
2021/03/21 03:22:34;;;;;;;9.85;4.22;;;;;;;;;;5135030;27;20216;-77
2021/03/21 03:25:05;;;;;;;5.32;3.78;;;;;;;;;;5134576;27;20289;-76
2021/03/21 03:27:33;;;;;;;6.20;4.22;;;;;;;;;;5135095;27;20300;-78
2021/03/21 03:30:02;;;;;;;9.30;4.85;;;;;;;;;;5147696;27;20533;-77
2021/03/21 03:32:28;;;;;;;8.45;5.03;;;;;;;;;;5154932;27;20214;-77
2021/03/21 03:34:56;;;;;;;7.78;4.45;;;;;;;;;;5155365;27;20548;-77
2021/03/21 03:37:23;;;;;;;7.20;4.32;;;;;;;;;;5155941;27;20188;-77
2021/03/21 03:39:49;;;;;;;6.25;4.35;;;;;;;;;;5156135;27;20617;-77
2021/03/21 03:42:19;;;;;;;8.00;4.67;;;;;;;;;;5155912;27;20269;-77
2021/03/21 03:44:49;;;;;;;6.75;4.38;;;;;;;;;;5153671;27;20459;-78
2021/03/21 03:47:18;;;;;;;6.65;4.32;;;;;;;;;;5155741;27;20232;-77
2021/03/21 03:49:51;;;;;;;6.93;3.75;;;;;;;;;;5155462;27;20664;-77
2021/03/21 03:52:37;;;;;;;5.75;3.03;;;;;;;;;;5155311;27;20185;-77
2021/03/21 03:55:06;;;;;;;7.72;4.45;;;;;;;;;;5146386;27;20240;-76
2021/03/21 03:57:36;;;;;;;3.72;3.42;;;;;;;;;;5155568;27;20204;-77
2021/03/21 04:00:06;;;;;;;6.97;4.53;;;;;;;;;;5155810;27;20223;-77
2021/03/21 04:02:39;;;;;;;6.50;5.00;;;;;;;;;;5155171;27;20219;-77
2021/03/21 04:05:09;;;;;;;6.90;3.40;;;;;;;;;;5155397;27;20206;-76
2021/03/21 04:07:38;;;;;;;7.55;4.30;;;;;;;;;;5155010;27;20205;-76
2021/03/21 04:10:08;;;;;;;5.00;4.30;;;;;;;;;;5155032;27;20235;-76
2021/03/21 04:12:38;;;;;;;6.47;4.70;;;;;;;;;;5155110;27;20209;-77
2021/03/21 04:15:07;;;;;;;5.85;4.20;;;;;;;;;;5154816;27;20280;-77
2021/03/21 04:17:35;;;;;;;6.90;4.50;;;;;;;;;;5154720;27;20199;-78
2021/03/21 04:20:05;;;;;;;6.53;4.40;;;;;;;;;;5155090;27;20836;-78
2021/03/21 04:22:33;;;;;;;7.00;5.30;;;;;;;;;;5155193;27;20240;-76
2021/03/21 04:25:01;;;;;;;7.70;5.00;;;;;;;;;;5154173;27;20294;-76
2021/03/21 04:27:29;;;;;;;6.70;3.67;;;;;;;;;;5153835;27;20202;-76
2021/03/21 04:29:58;;;;;;;5.43;4.53;;;;;;;;;;5155160;27;20266;-77
2021/03/21 04:32:27;;;;;;;5.38;3.83;;;;;;;;;;5154858;27;20212;-77
2021/03/21 04:34:56;;;;;;;11.27;4.13;;;;;;;;;;5154381;27;20290;-76
2021/03/21 04:37:23;;;;;;;9.68;4.53;;;;;;;;;;5154308;27;20230;-77
2021/03/21 04:39:51;;;;;;;10.00;4.90;;;;;;;;;;5154724;27;20182;-76
2021/03/21 04:42:21;;;;;;;6.70;4.40;;;;;;;;;;5155054;27;20624;-76
2021/03/21 04:44:50;;;;;;;5.20;3.65;;;;;;;;;;5154939;27;20212;-76
2021/03/21 04:47:17;;;;;;;9.70;5.50;;;;;;;;;;5155332;27;20238;-77
2021/03/21 04:49:43;;;;;;;5.00;4.57;;;;;;;;;;5154504;27;20288;-77
2021/03/21 04:52:16;;;;;;;8.27;4.57;;;;;;;;;;5154462;27;20302;-78
2021/03/21 04:54:45;;;;;;;6.18;4.70;;;;;;;;;;5154450;27;20652;-77
2021/03/21 04:57:17;;;;;;;7.60;4.80;;;;;;;;;;5144115;27;20697;-76
2021/03/21 04:59:44;;;;;;;7.95;5.05;;;;;;;;;;5134218;28;20604;-77
2021/03/21 05:02:14;;;;;;;7.13;5.70;;;;;;;;;;5133989;28;20199;-77
2021/03/21 05:04:42;;;;;;;7.10;4.72;;;;;;;;;;5133688;28;20225;-77
2021/03/21 05:07:17;;;;;;;7.70;4.50;;;;;;;;;;5133852;27;20209;-75
2021/03/21 05:09:45;;;;;;;7.30;4.22;;;;;;;;;;5134379;27;20237;-77
2021/03/21 05:12:13;;;;;;;8.23;4.80;;;;;;;;;;5133694;28;20250;-77
2021/03/21 05:14:41;;;;;;;9.25;5.00;;;;;;;;;;5133766;28;20680;-78
2021/03/21 05:17:15;;;;;;;5.13;4.20;;;;;;;;;;5132517;28;20210;-77
2021/03/21 05:19:46;;;;;;;9.60;4.25;;;;;;;;;;5135169;27;20679;-75
2021/03/21 05:22:21;;;;;;;9.15;4.50;;;;;;;;;;5153902;27;20263;-75
2021/03/21 05:24:50;;;;;;;6.15;4.80;;;;;;;;;;5153562;27;20182;-76
2021/03/21 05:27:17;;;;;;;8.82;5.30;;;;;;;;;;5153197;27;20195;-77
2021/03/21 05:29:50;;;;;;;7.47;4.85;;;;;;;;;;5145221;27;20191;-77
2021/03/21 05:32:16;;;;;;;5.40;4.07;;;;;;;;;;5145229;27;20219;-78
2021/03/21 05:34:44;;;;;;;6.57;5.10;;;;;;;;;;5153296;27;20198;-77
2021/03/21 05:37:19;;;;;;;5.20;4.00;;;;;;;;;;5144914;27;20232;-75
2021/03/21 05:39:50;;;;;;;5.45;4.28;;;;;;;;;;5136626;27;20282;-76
2021/03/21 05:42:39;;;;;;;7.05;5.00;;;;;;;;;;5153839;27;20250;-75
2021/03/21 05:45:20;;;;;;;5.80;4.72;;;;;;;;;;5145952;27;20189;-77
2021/03/21 05:48:01;;;;;;;8.85;5.65;;;;;;;;;;5096408;27;20287;-77
2021/03/21 05:50:46;;;;;;;5.88;4.45;;;;;;;;;;5100249;27;20204;-77
2021/03/21 05:53:31;;;;;;;14.02;4.43;;;;;;;;;;5151837;27;20207;-76
2021/03/21 05:56:16;;;;;;;5.47;4.32;;;;;;;;;;5153141;27;20216;-77
2021/03/21 05:58:49;;;;;;;6.63;4.43;;;;;;;;;;5153116;27;20209;-76
2021/03/21 06:01:31;;;;;;;8.30;4.78;;;;;;;;;;5153523;27;20190;-76
2021/03/21 06:04:18;;;;;;;7.82;4.95;;;;;;;;;;5153735;27;20875;-77
2021/03/21 06:07:00;;;;;;;8.40;4.07;;;;;;;;;;5153083;27;20243;-76
2021/03/21 06:09:37;;;;;;;6.22;3.90;;;;;;;;;;5156958;27;20187;-78
2021/03/21 06:12:13;;;;;;;8.88;4.63;;;;;;;;;;5157121;27;20281;-77
2021/03/21 06:14:56;;;;;;;5.95;5.35;;;;;;;;;;5157122;27;20207;-78
2021/03/21 06:17:42;;;;;;;6.70;5.47;;;;;;;;;;5157461;27;20196;-77
2021/03/21 06:20:24;;;;;;;7.65;4.95;;;;;;;;;;5156497;27;20225;-74
2021/03/21 06:23:08;;;;;;;9.43;4.65;;;;;;;;;;5156746;27;20197;-77
2021/03/21 06:25:51;;;;;;;9.10;4.47;;;;;;;;;;5156801;27;20236;-76
2021/03/21 06:28:32;;;;;;;6.57;4.50;;;;;;;;;;5156710;27;20637;-76
2021/03/21 06:31:18;;;;;;;10.13;5.45;;;;;;;;;;5156818;27;20253;-77
2021/03/21 06:33:47;;;;;;;5.10;3.95;;;;;;;;;;5155816;27;20213;-76
2021/03/21 06:36:20;;;;;;;9.52;4.80;;;;;;;;;;5156372;27;20230;-76
2021/03/21 06:38:58;;;;;;;8.10;5.25;;;;;;;;;;5156150;27;20623;-76
2021/03/21 06:41:35;;;;;;;9.77;5.22;;;;;;;;;;5156289;27;20219;-76
2021/03/21 06:44:22;;;;;;;7.40;4.15;;;;;;;;;;5156012;27;20212;-76
2021/03/21 06:46:59;;;;;;;10.35;5.68;;;;;;;;;;5156585;27;20282;-77
2021/03/21 06:49:40;;;;;;;7.82;5.32;;;;;;;;;;5156060;27;20218;-77
2021/03/21 06:52:11;;;;;;;9.75;5.70;;;;;;;;;;5100135;27;20288;-77
2021/03/21 06:54:44;;;;;;;4.72;3.60;;;;;;;;;;5156417;27;20219;-77
2021/03/21 06:57:28;;;;;;;8.20;5.43;;;;;;;;;;5156796;27;20917;-77
2021/03/21 07:00:03;;;;;;;13.10;5.13;;;;;;;;;;5156584;27;20658;-77
2021/03/21 07:02:59;;;;;;;7.85;4.90;;;;;;;;;;5156162;27;20645;-77
2021/03/21 07:05:42;;;;;;;9.50;4.18;;;;;;;;;;5072256;28;20211;-77
2021/03/21 07:08:29;;;;;;;7.55;4.82;;;;;;;;;;5127378;27;20203;-77
2021/03/21 07:11:13;;;;;;;8.15;5.57;;;;;;;;;;5135796;27;20588;-78
2021/03/21 07:13:50;;;;;;;7.65;4.60;;;;;;;;;;5142783;27;20213;-77
2021/03/21 07:16:41;;;;;;;8.55;5.18;;;;;;;;;;5155658;27;20602;-77
2021/03/21 07:19:25;;;;;;;7.20;3.58;;;;;;;;;;5141496;27;20634;-75
2021/03/21 07:22:04;;;;;;;5.65;4.05;;;;;;;;;;5155557;27;20204;-78
2021/03/21 07:24:38;;;;;;;9.57;5.78;;;;;;;;;;5155214;27;20190;-76
2021/03/21 07:27:23;;;;;;;9.48;4.68;;;;;;;;;;5155842;27;20622;-75
2021/03/21 07:29:51;;;;;;;15.05;5.25;;;;;;;;;;5155781;27;20186;-76
2021/03/21 07:32:28;;;;;;;7.75;4.07;;;;;;;;;;5156056;27;20195;-76
2021/03/21 07:35:02;;;;;;;10.80;5.95;;;;;;;;;;5155188;27;20197;-76
2021/03/21 07:37:31;;;;;;;6.60;4.35;;;;;;;;;;5155484;27;20189;-77
2021/03/21 07:40:20;;;;;;;8.43;5.55;;;;;;;;;;5155732;27;20205;-76
2021/03/21 07:43:13;;;;;;;9.05;5.20;;;;;;;;;;5155409;27;20208;-77
2021/03/21 07:45:52;;;;;;;12.55;5.55;;;;;;;;;;5106182;27;20247;-77
2021/03/21 07:48:23;;;;;;;9.73;4.88;;;;;;;;;;5155311;27;20243;-76
2021/03/21 07:51:02;;;;;;;7.95;4.97;;;;;;;;;;5154720;27;20658;-75
2021/03/21 07:53:31;;;;;;;8.55;4.80;;;;;;;;;;5155336;27;20202;-76
2021/03/21 07:56:01;;;;;;;8.95;5.20;;;;;;;;;;5155557;27;20249;-77
2021/03/21 07:58:30;;;;;;;9.25;6.03;;;;;;;;;;5155618;27;20273;-76
2021/03/21 08:00:57;;;;;;;9.25;5.22;;;;;;;;;;5155325;27;20216;-77
2021/03/21 08:03:26;;;;;;;7.00;4.10;;;;;;;;;;5155066;27;20230;-77
2021/03/21 08:05:52;;;;;;;9.70;5.00;;;;;;;;;;5154989;27;20193;-77
2021/03/21 08:08:22;;;;;;;11.07;6.40;;;;;;;;;;5155563;27;20209;-78
2021/03/21 08:10:53;;;;;;;9.70;5.90;;;;;;;;;;5155081;27;20193;-77
2021/03/21 08:13:22;;;;;;;10.98;6.32;;;;;;;;;;5154448;27;20214;-76
2021/03/21 08:15:49;;;;;;;14.20;6.30;;;;;;;;;;5154949;27;20182;-77
2021/03/21 08:18:18;;;;;;;11.45;6.82;;;;;;;;;;5155208;27;20655;-76
2021/03/21 08:20:49;;;;;;;13.77;7.63;;;;;;;;;;5154495;27;20201;-78
2021/03/21 08:23:20;;;;;;;13.43;6.15;;;;;;;;;;5154491;27;20626;-76
2021/03/21 08:25:46;;;;;;;17.92;8.90;;;;;;;;;;5154707;27;20194;-77
2021/03/21 08:28:14;;;;;;;13.50;7.15;;;;;;;;;;5154202;27;20212;-76
2021/03/21 08:30:50;;;;;;;15.80;7.28;;;;;;;;;;5153860;27;20263;-75
2021/03/21 08:33:31;;;;;;;8.75;5.82;;;;;;;;;;5154803;27;20232;-75
2021/03/21 08:36:13;;;;;;;15.90;6.00;;;;;;;;;;5154625;27;20264;-76
2021/03/21 08:38:41;;;;;;;11.23;7.07;;;;;;;;;;5155553;27;20185;-76
2021/03/21 08:41:07;;;;;;;7.95;3.55;;;;;;;;;;5154286;27;20211;-76
2021/03/21 08:43:35;;;;;;;11.63;4.75;;;;;;;;;;5154200;27;20202;-76
2021/03/21 08:46:09;;;;;;;8.20;5.00;;;;;;;;;;5154664;27;20258;-77
2021/03/21 08:48:37;;;;;;;8.82;5.35;;;;;;;;;;5154722;27;20201;-76
2021/03/21 08:51:29;;;;;;;13.68;6.57;;;;;;;;;;5153732;27;20208;-77
2021/03/21 08:53:57;;;;;;;13.98;5.93;;;;;;;;;;5149697;27;20567;-75
2021/03/21 08:56:24;;;;;;;13.00;7.47;;;;;;;;;;5154299;27;20207;-76
2021/03/21 08:58:51;;;;;;;8.45;4.85;;;;;;;;;;5153965;27;20201;-75
2021/03/21 09:01:19;;;;;;;10.30;6.70;;;;;;;;;;5153908;27;20605;-75
2021/03/21 09:03:45;;;;;;;15.52;6.70;;;;;;;;;;5153140;27;20190;-75
2021/03/21 09:06:25;;;;;;;6.60;4.25;;;;;;;;;;5153134;27;20185;-74
2021/03/21 09:08:51;;;;;;;7.63;4.65;;;;;;;;;;5153323;27;20194;-75
2021/03/21 09:11:32;;;;;;;5.90;4.90;;;;;;;;;;5154154;27;20202;-74
2021/03/21 09:14:00;;;;;;;12.63;6.20;;;;;;;;;;5154462;27;20312;-75
2021/03/21 09:16:26;;;;;;;11.68;5.47;;;;;;;;;;5153704;27;20192;-77
2021/03/21 09:19:10;;;;;;;12.93;5.50;;;;;;;;;;5154046;27;20201;-74
2021/03/21 09:21:44;;;;;;;9.38;5.07;;;;;;;;;;5153586;27;20190;-75
2021/03/21 09:24:17;;;;;;;9.00;4.95;;;;;;;;;;5154531;27;20258;-76
2021/03/21 09:26:45;;;;;;;9.98;5.03;;;;;;;;;;5153531;27;20206;-75
2021/03/21 09:29:20;;;;;;;8.70;4.43;;;;;;;;;;5153473;27;20228;-74
2021/03/21 09:31:47;;;;;;;13.27;4.50;;;;;;;;;;5153720;27;20213;-73
2021/03/21 09:34:16;;;;;;;9.43;4.70;;;;;;;;;;5152231;27;20213;-74
2021/03/21 09:36:44;;;;;;;11.60;6.93;;;;;;;;;;5153401;27;20305;-74
2021/03/21 09:39:12;;;;;;;13.90;6.28;;;;;;;;;;5153620;27;20627;-74
2021/03/21 09:41:39;;;;;;;12.00;6.25;;;;;;;;;;5155460;27;20242;-76
2021/03/21 09:44:16;;;;;;;11.52;5.97;;;;;;;;;;5157307;27;20281;-75
2021/03/21 09:46:47;;;;;;;12.88;6.68;;;;;;;;;;5157185;27;20221;-75
2021/03/21 09:49:14;;;;;;;11.70;6.20;;;;;;;;;;5158119;27;20182;-75
2021/03/21 09:51:42;;;;;;;12.43;5.72;;;;;;;;;;5157647;27;20205;-75
2021/03/21 09:54:11;;;;;;;11.50;6.88;;;;;;;;;;5156678;27;20227;-74
2021/03/21 09:56:40;;;;;;;12.15;6.65;;;;;;;;;;5157175;27;20218;-76
2021/03/21 09:59:14;;;;;;;9.73;6.63;;;;;;;;;;5157561;27;20182;-75
2021/03/21 10:01:42;;;;;;;9.43;5.43;;;;;;;;;;5156746;27;20269;-75
2021/03/21 10:04:15;;;;;;;14.15;6.80;;;;;;;;;;5155612;27;20647;-75
2021/03/21 10:06:42;;;;;;;8.55;4.95;;;;;;;;;;5157180;27;20201;-76
2021/03/21 10:09:11;;;;;;;16.48;7.00;;;;;;;;;;5156423;27;20201;-77
2021/03/21 10:11:38;;;;;;;14.15;6.90;;;;;;;;;;5148272;27;20225;-75
2021/03/21 10:14:19;;;;;;;13.95;7.10;;;;;;;;;;5150840;27;20216;-74
2021/03/21 10:16:46;;;;;;;12.68;6.18;;;;;;;;;;5135975;27;20198;-75
2021/03/21 10:19:12;;;;;;;9.98;6.30;;;;;;;;;;5136078;27;20207;-76
2021/03/21 10:21:39;;;;;;;14.02;7.38;;;;;;;;;;5136088;27;20194;-75
2021/03/21 10:24:13;;;;;;;15.30;7.35;;;;;;;;;;5136380;27;20643;-77
2021/03/21 10:26:59;;;;;;;10.98;5.82;;;;;;;;;;5135627;27;20199;-75
2021/03/21 10:29:45;;;;;;;12.55;6.60;;;;;;;;;;5136226;27;20205;-76
2021/03/21 10:32:22;;;;;;;12.90;6.50;;;;;;;;;;5146009;27;20194;-75
2021/03/21 10:34:49;;;;;;;9.75;6.28;;;;;;;;;;5156511;27;20551;-73
2021/03/21 10:37:30;;;;;;;9.82;4.85;;;;;;;;;;5156015;27;20206;-76
2021/03/21 10:39:58;;;;;;;8.07;5.68;;;;;;;;;;5155556;27;20198;-75
2021/03/21 10:42:38;;;;;;;9.30;4.57;;;;;;;;;;5156202;27;20248;-75
2021/03/21 10:45:06;;;;;;;8.60;4.78;;;;;;;;;;5156504;27;20605;-76
2021/03/21 10:47:56;;;;;;;6.93;4.10;;;;;;;;;;5156188;27;20293;-77
2021/03/21 10:50:39;;;;;;;9.40;4.65;;;;;;;;;;5130877;27;20257;-76
2021/03/21 10:53:14;;;;;;;7.18;4.30;;;;;;;;;;5155275;27;20578;-75
2021/03/21 10:55:41;;;;;;;9.73;5.07;;;;;;;;;;5156371;27;20185;-75
2021/03/21 10:58:26;;;;;;;9.15;4.57;;;;;;;;;;5156619;27;20526;-74
2021/03/21 11:01:11;;;;;;;7.97;4.55;;;;;;;;;;5154988;27;20200;-74
2021/03/21 11:03:38;;;;;;;5.68;4.07;;;;;;;;;;5135243;27;20199;-76
2021/03/21 11:06:04;;;;;;;8.95;4.05;;;;;;;;;;5135299;27;20294;-76
2021/03/21 11:08:31;;;;;;;8.10;4.72;;;;;;;;;;5153514;27;20633;-76
2021/03/21 11:10:58;;;;;;;4.72;3.25;;;;;;;;;;5155890;27;20198;-76
2021/03/21 11:13:29;;;;;;;9.18;4.40;;;;;;;;;;5156021;27;20557;-76
2021/03/21 11:15:55;;;;;;;11.30;4.88;;;;;;;;;;5154234;27;20301;-76
2021/03/21 11:18:25;;;;;;;8.30;4.97;;;;;;;;;;5155235;27;20197;-76
2021/03/21 11:21:02;;;;;;;6.32;3.85;;;;;;;;;;5155539;27;20537;-76
2021/03/21 11:23:28;;;;;;;7.35;3.55;;;;;;;;;;5155173;27;20182;-76
2021/03/21 11:25:54;;;;;;;5.65;3.90;;;;;;;;;;5154959;27;20195;-76
2021/03/21 11:28:26;;;;;;;6.53;4.78;;;;;;;;;;5154388;27;20205;-77
2021/03/21 11:30:54;;;;;;;7.93;4.25;;;;;;;;;;5155338;27;20940;-76
2021/03/21 11:33:26;;;;;;;7.45;4.85;;;;;;;;;;5155521;27;20207;-77
2021/03/21 11:36:07;;;;;;;10.18;4.95;;;;;;;;;;5154947;27;20251;-77
2021/03/21 11:38:35;;;;;;;9.57;5.78;;;;;;;;;;5155330;27;20190;-77
2021/03/21 11:41:06;;;;;;;8.65;4.50;;;;;;;;;;5155474;27;20956;-75
2021/03/21 11:43:32;;;;;;;10.07;5.18;;;;;;;;;;5155057;27;20195;-77
2021/03/21 11:46:12;;;;;;;8.30;4.65;;;;;;;;;;5155143;27;20216;-77
2021/03/21 11:48:39;;;;;;;10.02;4.80;;;;;;;;;;5155164;27;20195;-77
2021/03/21 11:51:05;;;;;;;9.68;5.50;;;;;;;;;;5155000;27;20549;-77
2021/03/21 11:53:36;;;;;;;10.40;5.32;;;;;;;;;;5155233;27;20227;-77
2021/03/21 11:56:05;;;;;;;11.85;5.53;;;;;;;;;;5155586;27;20183;-77
2021/03/21 11:58:34;;;;;;;8.25;5.38;;;;;;;;;;5155783;27;20207;-76
2021/03/21 12:01:02;;;;;;;7.38;4.68;;;;;;;;;;5155434;27;20200;-77
2021/03/21 12:03:29;;;;;;;9.32;4.43;;;;;;;;;;5156158;27;20227;-78
2021/03/21 12:06:00;;;;;;;10.85;5.22;;;;;;;;;;5154528;27;20287;-77
2021/03/21 12:08:31;;;;;;;9.43;4.80;;;;;;;;;;5155945;27;20198;-76
2021/03/21 12:10:58;;;;;;;8.32;4.82;;;;;;;;;;5155154;27;20194;-77
2021/03/21 12:13:26;;;;;;;6.88;4.95;;;;;;;;;;5155362;27;20603;-77
2021/03/21 12:15:53;;;;;;;9.27;4.72;;;;;;;;;;5154590;27;20217;-78
2021/03/21 12:18:20;;;;;;;8.73;4.07;;;;;;;;;;5155424;27;20720;-77
2021/03/21 12:20:46;;;;;;;7.60;3.67;;;;;;;;;;5154927;27;20205;-79
2021/03/21 12:23:29;;;;;;;6.00;3.95;;;;;;;;;;5155392;27;20200;-76
2021/03/21 12:26:03;;;;;;;5.80;3.25;;;;;;;;;;5154853;27;20209;-76
2021/03/21 12:28:30;;;;;;;8.50;3.00;;;;;;;;;;5155487;27;20205;-77
2021/03/21 12:30:59;;;;;;;4.93;2.60;;;;;;;;;;5154783;27;20674;-77
2021/03/21 12:33:33;;;;;;;5.32;2.80;;;;;;;;;;5154687;27;20242;-78
2021/03/21 12:36:19;;;;;;;4.20;2.35;;;;;;;;;;5154456;27;20240;-77
2021/03/21 12:38:48;;;;;;;5.43;2.45;;;;;;;;;;5155454;27;20193;-77
2021/03/21 12:41:30;;;;;;;5.60;3.28;;;;;;;;;;5155385;27;20638;-77
2021/03/21 12:44:10;;;;;;;5.30;2.55;;;;;;;;;;5155800;27;20196;-76
2021/03/21 12:46:42;;;;;;;4.55;2.80;;;;;;;;;;5155611;27;20560;-76
2021/03/21 12:49:12;;;;;;;4.90;2.60;;;;;;;;;;5155157;27;20229;-76
2021/03/21 12:51:38;;;;;;;4.43;2.75;;;;;;;;;;5155136;27;20207;-77
2021/03/21 12:54:05;;;;;;;5.65;2.95;;;;;;;;;;5155249;27;20219;-77
2021/03/21 12:56:31;;;;;;;3.03;2.42;;;;;;;;;;5155528;27;20204;-77
2021/03/21 12:58:57;;;;;;;4.00;2.38;;;;;;;;;;5155889;27;20208;-77
2021/03/21 13:01:24;;;;;;;6.63;2.90;;;;;;;;;;5155835;27;20200;-78
2021/03/21 13:03:50;;;;;;;6.88;3.53;;;;;;;;;;5155004;27;20596;-77
2021/03/21 13:06:17;;;;;;;4.38;3.10;;;;;;;;;;5154963;27;20543;-78
2021/03/21 13:08:43;;;;;;;6.70;3.10;;;;;;;;;;5155110;27;20237;-76
2021/03/21 13:11:10;;;;;;;6.32;3.05;;;;;;;;;;5155717;27;20212;-77
2021/03/21 13:13:36;;;;;;;3.58;2.10;;;;;;;;;;5153009;27;20299;-77
2021/03/21 13:16:02;;;;;;;6.20;2.80;;;;;;;;;;5155240;27;20195;-77
2021/03/21 13:18:30;;;;;;;4.72;3.20;;;;;;;;;;5158912;27;20241;-76
2021/03/21 13:20:58;;;;;;;6.53;3.30;;;;;;;;;;5159234;27;20250;-78
2021/03/21 13:23:27;;;;;;;4.20;2.05;;;;;;;;;;5159287;27;20197;-77
2021/03/21 13:25:54;;;;;;;2.70;2.00;;;;;;;;;;5159480;27;20185;-77
2021/03/21 13:28:20;;;;;;;5.57;2.80;;;;;;;;;;5158934;27;20737;-78
2021/03/21 13:30:48;;;;;;;3.13;2.25;;;;;;;;;;5159083;27;20214;-78
2021/03/21 13:33:15;;;;;;;5.13;2.65;;;;;;;;;;5159030;27;20197;-77
2021/03/21 13:35:42;;;;;;;5.60;2.92;;;;;;;;;;5158555;27;20233;-77
2021/03/21 13:38:08;;;;;;;2.83;2.17;;;;;;;;;;5158354;27;20208;-75
2021/03/21 13:40:36;;;;;;;5.68;2.47;;;;;;;;;;5158825;27;20182;-77
2021/03/21 13:43:03;;;;;;;5.55;2.70;;;;;;;;;;5158564;27;20205;-77
2021/03/21 13:45:30;;;;;;;4.25;2.17;;;;;;;;;;5158747;27;20198;-76
2021/03/21 13:47:56;;;;;;;4.45;3.50;;;;;;;;;;5158550;27;20194;-77
2021/03/21 13:50:22;;;;;;;2.70;2.30;;;;;;;;;;5158066;27;20202;-77
2021/03/21 13:52:49;;;;;;;3.22;1.77;;;;;;;;;;5159126;27;20201;-77
2021/03/21 13:55:19;;;;;;;4.43;2.22;;;;;;;;;;5158376;27;20213;-77
2021/03/21 13:57:45;;;;;;;5.00;2.60;;;;;;;;;;5158297;27;20183;-77
2021/03/21 14:00:12;;;;;;;3.90;1.70;;;;;;;;;;5158314;27;20202;-75
2021/03/21 14:02:38;;;;;;;3.38;1.80;;;;;;;;;;5158247;27;20242;-78
2021/03/21 14:05:05;;;;;;;2.17;1.83;;;;;;;;;;5159674;27;20194;-77
2021/03/21 14:07:32;;;;;;;2.70;1.40;;;;;;;;;;5158609;27;20267;-77
2021/03/21 14:09:59;;;;;;;2.83;1.50;;;;;;;;;;5158439;27;20218;-77
2021/03/21 14:12:25;;;;;;;2.38;1.75;;;;;;;;;;5158208;27;20606;-76
2021/03/21 14:14:52;;;;;;;1.85;1.30;;;;;;;;;;5158390;27;20218;-77
2021/03/21 14:17:18;;;;;;;1.52;1.38;;;;;;;;;;5158212;27;20193;-77
2021/03/21 14:19:45;;;;;;;1.52;1.35;;;;;;;;;;5158116;27;20647;-78
2021/03/21 14:22:11;;;;;;;2.08;1.40;;;;;;;;;;5157951;27;20202;-77
2021/03/21 14:24:37;;;;;;;1.20;1.00;;;;;;;;;;5157902;27;20552;-76
2021/03/21 14:27:06;;;;;;;4.15;3.00;;;;;;;;;;5157470;27;20201;-77
2021/03/21 14:29:32;;;;;;;2.15;1.77;;;;;;;;;;5157274;27;20221;-77
2021/03/21 14:31:58;;;;;;;1.65;1.42;;;;;;;;;;5157977;27;20181;-77
2021/03/21 14:34:24;;;;;;;1.73;1.50;;;;;;;;;;5157669;27;20218;-77
2021/03/21 14:36:51;;;;;;;3.05;1.33;;;;;;;;;;5157662;27;20600;-76
2021/03/21 14:39:17;;;;;;;2.40;1.10;;;;;;;;;;5157987;27;20292;-75
2021/03/21 14:41:43;;;;;;;6.03;1.80;;;;;;;;;;5158205;27;20650;-77
2021/03/21 14:44:10;;;;;;;2.35;1.23;;;;;;;;;;5157232;27;20646;-77
2021/03/21 14:46:36;;;;;;;5.57;1.67;;;;;;;;;;5156603;27;20201;-77
2021/03/21 14:49:03;;;;;;;1.90;1.25;;;;;;;;;;5156896;27;20206;-77
2021/03/21 14:51:29;;;;;;;2.05;1.35;;;;;;;;;;5156621;27;20284;-77
2021/03/21 14:53:55;;;;;;;1.65;1.20;;;;;;;;;;5156799;27;20264;-77
2021/03/21 14:56:21;;;;;;;4.25;1.55;;;;;;;;;;5156331;27;20578;-77
2021/03/21 14:58:47;;;;;;;3.90;1.30;;;;;;;;;;5156452;27;20230;-77
2021/03/21 15:01:14;;;;;;;1.67;1.38;;;;;;;;;;5155874;27;20205;-76
2021/03/21 15:03:41;;;;;;;2.47;1.50;;;;;;;;;;5156225;27;20728;-77